createdAt,value
2018-12-19T00:01:54.901Z,94.08
2018-12-19T00:04:22.473Z,94.23
2018-12-19T00:06:50.030Z,94.42
2018-12-19T00:09:18.630Z,94.87
2018-12-19T00:11:46.154Z,94.95
2018-12-19T00:14:13.704Z,95.29
2018-12-19T00:16:41.417Z,95.14
2018-12-19T00:19:08.957Z,95.44
2018-12-19T00:21:36.529Z,95.56
2018-12-19T00:24:04.153Z,95.43
2018-12-19T00:26:31.733Z,94.94
2018-12-19T00:28:59.277Z,95.13
2018-12-19T00:31:26.915Z,95.43
2018-12-19T00:33:54.450Z,95.26
2018-12-19T00:36:22.014Z,95.29
2018-12-19T00:38:49.785Z,94.76
2018-12-19T00:41:25.022Z,95.44
2018-12-19T00:43:52.807Z,95.16
2018-12-19T00:46:20.372Z,94.95
2018-12-19T00:48:47.938Z,95.02
2018-12-19T00:51:15.708Z,94.66
2018-12-19T00:53:43.297Z,94.83
2018-12-19T00:56:10.882Z,94.76
2018-12-19T00:58:38.461Z,94.95
2018-12-19T01:01:06.015Z,94.48
2018-12-19T01:03:33.575Z,94.46
2018-12-19T01:06:01.192Z,93.77
2018-12-19T01:08:28.735Z,94.23
2018-12-19T01:11:17.981Z,94.17
2018-12-19T01:13:45.536Z,94.76
2018-12-19T01:16:13.079Z,94.84
2018-12-19T01:18:40.757Z,94.67
2018-12-19T01:21:08.295Z,94.46
2018-12-19T01:23:35.840Z,94.94
2018-12-19T01:26:03.696Z,95.34
2018-12-19T01:28:31.224Z,95.59
2018-12-19T01:30:58.765Z,95.70
2018-12-19T01:33:26.734Z,95.46
2018-12-19T01:35:54.300Z,94.02
2018-12-19T01:38:21.850Z,94.12
2018-12-19T01:40:49.536Z,93.58
2018-12-19T01:43:17.093Z,93.13
2018-12-19T01:45:44.674Z,93.46
2018-12-19T01:48:12.339Z,94.69
2018-12-19T01:50:39.953Z,94.09
2018-12-19T01:53:07.513Z,93.73
2018-12-19T01:55:35.220Z,94.15
2018-12-19T01:58:02.757Z,94.29
2018-12-19T02:00:31.188Z,94.78
2018-12-19T02:02:59.148Z,94.34
2018-12-19T02:05:26.685Z,94.70
2018-12-19T02:07:54.253Z,94.92
2018-12-19T02:10:21.965Z,95.00
2018-12-19T02:12:49.505Z,95.04
2018-12-19T02:15:17.044Z,95.62
2018-12-19T02:17:44.659Z,95.63
2018-12-19T02:20:12.193Z,95.66
2018-12-19T02:22:39.754Z,95.96
2018-12-19T02:25:07.636Z,95.88
2018-12-19T02:27:35.181Z,95.64
2018-12-19T02:30:02.766Z,94.96
2018-12-19T02:32:30.360Z,95.15
2018-12-19T02:34:57.916Z,95.38
2018-12-19T02:37:25.445Z,95.07
2018-12-19T02:39:53.190Z,95.41
2018-12-19T02:42:20.734Z,95.79
2018-12-19T02:44:48.274Z,96.11
2018-12-19T02:47:16.195Z,96.29
2018-12-19T02:49:43.739Z,96.21
2018-12-19T02:52:11.277Z,96.20
2018-12-19T02:54:39.272Z,96.13
2018-12-19T02:57:06.822Z,96.10
2018-12-19T02:59:34.354Z,95.84
2018-12-19T03:02:02.061Z,95.88
2018-12-19T03:04:29.613Z,96.13
2018-12-19T03:06:57.173Z,95.78
2018-12-19T03:09:24.810Z,95.96
2018-12-19T03:11:52.370Z,96.12
2018-12-19T03:14:19.917Z,96.33
2018-12-19T03:16:47.697Z,96.41
2018-12-19T03:19:15.268Z,95.39
2018-12-19T03:21:42.827Z,95.49
2018-12-19T03:24:10.410Z,95.28
2018-12-19T03:26:37.945Z,95.29
2018-12-19T03:29:05.497Z,95.60
2018-12-19T03:31:33.232Z,96.03
2018-12-19T03:34:00.782Z,96.15
2018-12-19T03:36:28.321Z,96.41
2018-12-19T03:38:56.033Z,96.88
2018-12-19T03:41:23.584Z,96.72
2018-12-19T03:43:51.154Z,96.52
2018-12-19T03:46:18.881Z,96.51
2018-12-19T03:48:52.073Z,96.54
2018-12-19T03:51:27.228Z,96.85
2018-12-19T03:53:54.793Z,97.18
2018-12-19T03:56:22.309Z,96.95
2018-12-19T03:58:50.023Z,96.80
2018-12-19T04:01:17.572Z,96.89
2018-12-19T04:03:45.142Z,96.96
2018-12-19T04:06:12.760Z,97.17
2018-12-19T04:08:40.338Z,97.15
2018-12-19T04:11:08.880Z,97.09
2018-12-19T04:13:36.671Z,97.28
2018-12-19T04:16:04.277Z,97.04
2018-12-19T04:18:31.798Z,96.92
2018-12-19T04:20:59.406Z,96.90
2018-12-19T04:23:26.965Z,96.91
2018-12-19T04:25:54.542Z,97.20
2018-12-19T04:28:22.210Z,97.42
2018-12-19T04:30:49.782Z,97.71
2018-12-19T04:33:17.329Z,97.76
2018-12-19T04:35:45.082Z,97.77
2018-12-19T04:38:12.681Z,98.24
2018-12-19T04:40:40.254Z,98.66
2018-12-19T04:43:08.621Z,98.79
2018-12-19T04:45:36.162Z,98.64
2018-12-19T04:48:03.702Z,98.48
2018-12-19T04:50:31.434Z,98.28
2018-12-19T04:52:58.981Z,98.06
2018-12-19T04:55:26.543Z,98.06
2018-12-19T04:57:54.413Z,97.14
2018-12-19T05:00:22.057Z,97.01
2018-12-19T05:02:49.595Z,96.96
2018-12-19T05:05:17.345Z,95.42
2018-12-19T05:07:44.963Z,95.97
2018-12-19T05:10:12.685Z,96.42
2018-12-19T05:12:40.220Z,96.49
2018-12-19T05:15:07.794Z,96.56
2018-12-19T05:17:35.386Z,96.50
2018-12-19T05:20:04.328Z,96.31
2018-12-19T05:22:31.857Z,95.26
2018-12-19T05:24:59.414Z,95.44
2018-12-19T05:27:27.040Z,95.93
2018-12-19T05:29:54.578Z,96.48
2018-12-19T05:32:22.143Z,96.46
2018-12-19T05:34:49.714Z,96.47
2018-12-19T05:37:17.278Z,96.50
2018-12-19T05:39:44.869Z,96.48
2018-12-19T05:42:12.500Z,96.50
2018-12-19T05:44:40.041Z,96.43
2018-12-19T05:47:08.539Z,96.25
2018-12-19T05:49:35.598Z,95.94
2018-12-19T05:52:03.166Z,95.67
2018-12-19T05:54:30.749Z,95.61
2018-12-19T05:56:58.363Z,95.91
2018-12-19T05:59:25.925Z,96.14
2018-12-19T06:01:53.471Z,96.22
2018-12-19T06:04:21.091Z,95.73
2018-12-19T06:06:48.624Z,95.40
2018-12-19T06:09:17.017Z,95.15
2018-12-19T06:11:44.745Z,94.87
2018-12-19T06:14:12.336Z,94.58
2018-12-19T06:16:39.874Z,94.96
2018-12-19T06:19:07.483Z,95.66
2018-12-19T06:21:35.102Z,96.33
2018-12-19T06:24:02.648Z,96.48
2018-12-19T06:26:30.398Z,96.58
2018-12-19T06:28:57.953Z,96.10
2018-12-19T06:31:25.476Z,95.95
2018-12-19T06:33:53.462Z,95.01
2018-12-19T06:36:21.049Z,93.90
2018-12-19T06:38:48.590Z,94.20
2018-12-19T06:41:16.357Z,93.71
2018-12-19T06:43:43.914Z,91.83
2018-12-19T06:46:11.520Z,90.35
2018-12-19T06:48:39.137Z,90.81
2018-12-19T06:51:06.750Z,89.92
2018-12-19T06:53:34.322Z,89.90
2018-12-19T06:56:02.042Z,89.05
2018-12-19T06:58:29.619Z,88.53
2018-12-19T07:00:57.209Z,89.18
2018-12-19T07:03:25.191Z,89.36
2018-12-19T07:05:52.765Z,88.34
2018-12-19T07:08:20.317Z,88.43
2018-12-19T07:10:48.246Z,88.70
2018-12-19T07:13:15.770Z,88.63
2018-12-19T07:15:43.313Z,88.28
2018-12-19T07:18:10.885Z,87.71
2018-12-19T07:20:38.477Z,88.01
2018-12-19T07:23:06.029Z,88.20
2018-12-19T07:25:33.731Z,87.87
2018-12-19T07:28:01.333Z,87.76
2018-12-19T07:30:28.894Z,86.58
2018-12-19T07:32:56.798Z,87.72
2018-12-19T07:35:24.349Z,87.58
2018-12-19T07:37:51.897Z,88.17
2018-12-19T07:40:19.531Z,87.54
2018-12-19T07:42:47.078Z,85.37
2018-12-19T07:45:14.606Z,86.35
2018-12-19T07:47:42.530Z,87.43
2018-12-19T07:50:10.110Z,87.12
2018-12-19T07:52:37.652Z,87.25
2018-12-19T07:55:05.393Z,87.96
2018-12-19T07:57:32.968Z,88.15
2018-12-19T08:00:00.537Z,89.15
2018-12-19T08:02:28.197Z,87.39
2018-12-19T08:04:55.792Z,88.33
2018-12-19T08:07:23.376Z,86.83
2018-12-19T08:09:51.169Z,87.25
2018-12-19T08:12:18.763Z,87.66
2018-12-19T08:14:46.332Z,87.45
2018-12-19T08:17:14.368Z,85.96
2018-12-19T08:19:59.441Z,88.49
2018-12-19T08:22:27.293Z,86.47
2018-12-19T08:24:54.824Z,87.29
2018-12-19T08:27:22.397Z,86.52
2018-12-19T08:29:50.023Z,86.72
2018-12-19T08:32:17.584Z,86.06
2018-12-19T08:34:45.150Z,85.88
2018-12-19T08:37:12.877Z,87.72
2018-12-19T08:39:40.477Z,87.29
2018-12-19T08:42:08.090Z,87.48
2018-12-19T08:44:35.830Z,83.43
2018-12-19T08:47:03.440Z,82.07
2018-12-19T08:49:31.026Z,82.75
2018-12-19T08:51:58.740Z,83.36
2018-12-19T08:54:26.291Z,83.88
2018-12-19T08:56:53.854Z,81.74
2018-12-19T08:59:21.578Z,81.74
2018-12-19T09:01:49.213Z,81.35
2018-12-19T09:04:16.822Z,81.05
2018-12-19T09:06:44.663Z,82.14
2018-12-19T09:09:12.239Z,80.81
2018-12-19T09:11:39.841Z,82.07
2018-12-19T09:14:07.450Z,81.54
2018-12-19T09:16:35.037Z,82.06
2018-12-19T09:19:02.617Z,83.10
2018-12-19T09:21:30.253Z,82.95
2018-12-19T09:23:58.163Z,81.40
2018-12-19T09:26:25.848Z,81.17
2018-12-19T09:28:53.573Z,83.48
2018-12-19T09:31:23.170Z,82.80
2018-12-19T09:33:51.602Z,81.47
2018-12-19T09:36:19.576Z,82.15
2018-12-19T09:38:47.143Z,82.46
2018-12-19T09:41:14.731Z,83.43
2018-12-19T09:43:42.351Z,83.17
2018-12-19T09:46:09.953Z,82.49
2018-12-19T09:48:37.537Z,84.24
2018-12-19T09:51:13.342Z,83.67
2018-12-19T09:53:41.477Z,82.13
2018-12-19T09:56:09.093Z,84.22
2018-12-19T09:58:37.070Z,83.31
2018-12-19T10:01:05.508Z,83.58
2018-12-19T10:03:32.400Z,84.04
2018-12-19T10:06:02.272Z,86.00
2018-12-19T10:08:30.116Z,84.35
2018-12-19T10:11:02.057Z,84.42
2018-12-19T10:13:29.936Z,83.16
2018-12-19T10:15:57.949Z,84.38
2018-12-19T10:18:26.261Z,85.47
2018-12-19T10:20:57.660Z,86.10
2018-12-19T10:23:25.537Z,85.12
2018-12-19T10:26:12.926Z,85.11
2018-12-19T10:28:40.638Z,85.39
2018-12-19T10:31:08.322Z,85.41
2018-12-19T10:33:35.999Z,84.99
2018-12-19T10:36:04.589Z,85.67
2018-12-19T10:38:32.174Z,84.78
2018-12-19T10:40:59.802Z,84.20
2018-12-19T10:43:27.548Z,84.37
2018-12-19T10:45:55.241Z,84.00
2018-12-19T10:48:23.166Z,81.80
2018-12-19T10:50:52.359Z,81.77
2018-12-19T10:53:18.589Z,82.39
2018-12-19T10:55:46.268Z,81.48
2018-12-19T10:58:14.003Z,81.74
2018-12-19T11:00:46.993Z,82.87
2018-12-19T11:03:14.732Z,80.91
2018-12-19T11:05:42.344Z,80.27
2018-12-19T11:08:10.043Z,80.22
2018-12-19T11:10:39.627Z,79.31
2018-12-19T11:13:09.203Z,79.50
2018-12-19T11:15:36.808Z,79.20
2018-12-19T11:18:04.865Z,78.27
2018-12-19T11:20:33.208Z,78.08
2018-12-19T11:23:02.010Z,78.41
2018-12-19T11:25:29.767Z,77.02
2018-12-19T11:27:58.492Z,76.07
2018-12-19T11:30:26.086Z,76.96
2018-12-19T11:32:53.772Z,77.14
2018-12-19T11:35:21.749Z,75.78
2018-12-19T11:37:50.190Z,77.72
2018-12-19T11:40:18.423Z,76.89
2018-12-19T11:42:46.270Z,76.09
2018-12-19T11:45:13.945Z,75.64
2018-12-19T11:47:41.588Z,75.24
2018-12-19T11:50:09.370Z,73.76
2018-12-19T11:52:36.950Z,72.21
2018-12-19T11:55:04.948Z,72.83
2018-12-19T11:57:32.539Z,71.14
2018-12-19T12:00:00.130Z,71.00
2018-12-19T12:02:27.786Z,74.13
2018-12-19T12:04:56.104Z,69.54
2018-12-19T12:07:23.917Z,68.04
2018-12-19T12:09:52.359Z,70.21
2018-12-19T12:12:19.929Z,68.98
2018-12-19T12:14:47.789Z,71.76
2018-12-19T12:17:15.685Z,69.73
2018-12-19T12:19:43.305Z,70.04
2018-12-19T12:22:11.175Z,67.66
2018-12-19T12:24:38.852Z,65.62
2018-12-19T12:27:06.468Z,68.87
2018-12-19T12:29:34.135Z,69.43
2018-12-19T12:32:02.826Z,68.37
2018-12-19T12:34:31.209Z,69.71
2018-12-19T12:36:58.897Z,69.58
2018-12-19T12:39:26.937Z,69.65
2018-12-19T12:41:54.531Z,69.62
2018-12-19T12:44:22.104Z,71.60
2018-12-19T12:46:49.826Z,70.37
2018-12-19T12:49:17.377Z,69.42
2018-12-19T12:51:45.008Z,69.49
2018-12-19T12:54:12.847Z,69.31
2018-12-19T12:56:40.472Z,70.68
2018-12-19T12:59:08.068Z,72.77
2018-12-19T13:01:37.667Z,71.10
2018-12-19T13:04:05.308Z,70.86
2018-12-19T13:06:32.921Z,70.84
2018-12-19T13:09:00.773Z,71.81
2018-12-19T13:11:29.168Z,71.59
2018-12-19T13:13:56.763Z,71.70
2018-12-19T13:16:24.465Z,71.48
2018-12-19T13:18:52.064Z,71.34
2018-12-19T13:21:19.695Z,69.67
2018-12-19T13:23:47.544Z,67.76
2018-12-19T13:26:15.414Z,69.06
2018-12-19T13:28:42.986Z,68.62
2018-12-19T13:31:10.705Z,69.65
2018-12-19T13:33:38.344Z,67.48
2018-12-19T13:36:06.666Z,68.09
2018-12-19T13:38:34.392Z,68.13
2018-12-19T13:41:02.012Z,68.96
2018-12-19T13:43:29.588Z,70.55
2018-12-19T13:45:57.865Z,70.72
2018-12-19T13:48:26.412Z,71.83
2018-12-19T13:50:54.047Z,71.37
2018-12-19T13:53:21.730Z,71.95
2018-12-19T13:55:49.320Z,72.44
2018-12-19T13:58:16.921Z,72.90
2018-12-19T14:00:44.802Z,73.85
2018-12-19T14:03:12.950Z,72.70
2018-12-19T14:05:40.537Z,71.94
2018-12-19T14:08:08.197Z,72.38
2018-12-19T14:10:36.463Z,73.15
2018-12-19T14:13:04.389Z,73.82
2018-12-19T14:15:32.125Z,74.01
2018-12-19T14:17:59.789Z,73.93
2018-12-19T14:20:27.343Z,74.01
2018-12-19T14:22:55.059Z,75.41
2018-12-19T14:25:22.707Z,76.65
2018-12-19T14:27:50.572Z,77.21
2018-12-19T14:30:18.242Z,77.77
2018-12-19T14:32:45.802Z,78.61
2018-12-19T14:35:13.423Z,78.36
2018-12-19T14:37:41.152Z,79.33
2018-12-19T14:40:08.758Z,80.75
2018-12-19T14:42:36.362Z,82.17
2018-12-19T14:45:05.062Z,82.95
2018-12-19T14:47:32.679Z,83.72
2018-12-19T14:50:00.247Z,86.18
2018-12-19T14:52:27.883Z,87.38
2018-12-19T14:54:56.350Z,87.22
2018-12-19T14:57:23.935Z,87.25
2018-12-19T14:59:52.098Z,88.09
2018-12-19T15:02:20.680Z,88.67
2018-12-19T15:04:48.949Z,88.74
2018-12-19T15:07:15.989Z,88.67
2018-12-19T15:09:43.566Z,88.74
2018-12-19T15:12:11.162Z,88.33
2018-12-19T15:14:39.602Z,89.26
2018-12-19T15:17:13.690Z,89.46
2018-12-19T15:19:34.929Z,89.43
2018-12-19T15:22:02.970Z,89.49
2018-12-19T15:24:30.530Z,89.59
2018-12-19T15:26:58.128Z,89.46
2018-12-19T15:29:26.537Z,90.01
2018-12-19T15:31:54.105Z,90.64
2018-12-19T15:34:21.781Z,91.30
2018-12-19T15:36:49.532Z,91.45
2018-12-19T15:39:17.128Z,91.08
2018-12-19T15:41:44.969Z,90.76
2018-12-19T15:44:13.361Z,90.72
2018-12-19T15:46:40.976Z,90.82
2018-12-19T15:49:08.540Z,90.98
2018-12-19T15:51:36.446Z,90.90
2018-12-19T15:54:04.034Z,91.00
2018-12-19T15:56:31.573Z,91.44
2018-12-19T15:59:01.004Z,91.52
2018-12-19T16:01:28.812Z,91.70
2018-12-19T16:03:56.366Z,91.75
2018-12-19T16:06:25.068Z,91.67
2018-12-19T16:08:52.649Z,91.89
2018-12-19T16:11:20.189Z,92.09
2018-12-19T16:13:47.904Z,92.48
2018-12-19T16:16:15.514Z,92.55
2018-12-19T16:18:43.272Z,92.46
2018-12-19T16:21:11.009Z,92.58
2018-12-19T16:23:38.579Z,91.70
2018-12-19T16:26:06.118Z,91.05
2018-12-19T16:28:40.887Z,90.76
2018-12-19T16:31:09.097Z,90.79
2018-12-19T16:33:36.686Z,91.35
2018-12-19T16:36:04.311Z,92.10
2018-12-19T16:38:31.859Z,92.60
2018-12-19T16:40:59.793Z,92.37
2018-12-19T16:43:27.653Z,92.79
2018-12-19T16:45:55.323Z,93.67
2018-12-19T16:48:23.361Z,93.84
2018-12-19T16:50:51.013Z,93.94
2018-12-19T16:53:18.580Z,94.46
2018-12-19T16:55:46.135Z,94.31
2018-12-19T16:58:14.390Z,93.90
2018-12-19T17:00:41.945Z,93.45
2018-12-19T17:03:09.569Z,93.19
2018-12-19T17:05:37.194Z,93.05
2018-12-19T17:08:04.757Z,93.62
2018-12-19T17:10:32.313Z,93.96
2018-12-19T17:13:00.205Z,94.32
2018-12-19T17:15:27.777Z,94.91
2018-12-19T17:17:55.347Z,94.67
2018-12-19T17:20:23.197Z,94.60
2018-12-19T17:22:50.773Z,94.77
2018-12-19T17:25:18.404Z,95.05
2018-12-19T17:27:46.116Z,95.34
2018-12-19T17:30:13.810Z,95.81
2018-12-19T17:32:41.418Z,96.02
2018-12-19T17:35:09.219Z,95.71
2018-12-19T17:37:36.812Z,95.82
2018-12-19T17:40:04.488Z,95.80
2018-12-19T17:42:32.084Z,95.72
2018-12-19T17:44:59.667Z,95.66
2018-12-19T17:47:27.241Z,94.96
2018-12-19T17:49:55.162Z,94.88
2018-12-19T17:52:22.709Z,94.67
2018-12-19T17:54:50.263Z,94.92
2018-12-19T17:57:18.189Z,95.24
2018-12-19T17:59:45.769Z,95.00
2018-12-19T18:02:13.386Z,94.90
2018-12-19T18:04:41.090Z,94.92
2018-12-19T18:07:08.674Z,94.81
2018-12-19T18:09:36.232Z,94.56
2018-12-19T18:12:03.884Z,94.75
2018-12-19T18:14:31.434Z,94.27
2018-12-19T18:16:58.967Z,94.11
2018-12-19T18:19:26.522Z,94.17
2018-12-19T18:21:54.137Z,94.45
2018-12-19T18:24:22.065Z,94.52
2018-12-19T18:26:49.641Z,95.00
2018-12-19T18:29:17.267Z,94.91
2018-12-19T18:31:44.821Z,95.10
2018-12-19T18:34:12.505Z,94.69
2018-12-19T18:36:40.074Z,94.81
2018-12-19T18:39:07.689Z,94.81
2018-12-19T18:41:35.379Z,94.80
2018-12-19T18:44:03.009Z,94.66
2018-12-19T18:46:30.602Z,94.73
2018-12-19T18:48:58.294Z,94.71
2018-12-19T18:51:25.881Z,94.90
2018-12-19T18:53:53.453Z,94.82
2018-12-19T18:56:21.190Z,94.44
2018-12-19T18:58:48.761Z,94.47
2018-12-19T19:01:16.350Z,94.60
2018-12-19T19:03:44.091Z,94.57
2018-12-19T19:06:11.682Z,94.27
2018-12-19T19:08:39.273Z,94.00
2018-12-19T19:11:11.966Z,93.55
2018-12-19T19:13:39.585Z,93.00
2018-12-19T19:16:07.135Z,93.12
2018-12-19T19:18:34.893Z,93.22
2018-12-19T19:21:02.467Z,93.45
2018-12-19T19:23:30.076Z,93.03
2018-12-19T19:25:57.730Z,93.11
2018-12-19T19:28:25.321Z,93.18
2018-12-19T19:31:11.124Z,93.63
2018-12-19T19:33:38.710Z,93.98
2018-12-19T19:36:06.342Z,93.74
2018-12-19T19:38:34.042Z,93.18
2018-12-19T19:41:01.587Z,93.16
2018-12-19T19:43:29.147Z,93.06
2018-12-19T19:45:56.858Z,92.81
2018-12-19T19:48:24.429Z,92.96
2018-12-19T19:50:52.006Z,93.15
2018-12-19T19:53:19.609Z,93.29
2018-12-19T19:55:47.186Z,93.43
2018-12-19T19:58:14.752Z,93.61
2018-12-19T20:00:42.479Z,93.70
2018-12-19T20:03:10.071Z,94.03
2018-12-19T20:05:37.628Z,94.23
2018-12-19T20:08:05.281Z,94.32
2018-12-19T20:10:32.825Z,94.22
2018-12-19T20:13:00.380Z,94.02
2018-12-19T20:15:28.931Z,93.60
2018-12-19T20:17:56.504Z,93.68
2018-12-19T20:20:24.081Z,93.89
2018-12-19T20:22:52.143Z,93.19
2018-12-19T20:25:21.000Z,92.99
2018-12-19T20:27:47.322Z,92.99
2018-12-19T20:30:15.059Z,93.48
2018-12-19T20:32:42.621Z,93.62
2018-12-19T20:35:10.190Z,93.61
2018-12-19T20:37:38.006Z,93.49
2018-12-19T20:40:05.868Z,93.82
2018-12-19T20:42:33.441Z,93.74
2018-12-19T20:45:01.274Z,94.04
2018-12-19T20:47:28.856Z,93.66
2018-12-19T20:49:56.422Z,93.61
2018-12-19T20:52:24.024Z,93.06
2018-12-19T20:54:51.598Z,93.33
2018-12-19T20:57:19.186Z,93.51
2018-12-19T20:59:46.931Z,93.93
2018-12-19T21:02:14.529Z,94.20
2018-12-19T21:04:42.089Z,94.57
2018-12-19T21:07:09.779Z,94.70
2018-12-19T21:09:37.362Z,94.43
2018-12-19T21:12:05.046Z,94.34
2018-12-19T21:14:33.171Z,94.85
2018-12-19T21:17:05.881Z,94.98
2018-12-19T21:19:33.474Z,94.43
2018-12-19T21:22:01.034Z,93.69
2018-12-19T21:24:28.602Z,94.07
2018-12-19T21:26:56.440Z,94.01
2018-12-19T21:29:24.042Z,94.15
2018-12-19T21:31:51.646Z,94.02
2018-12-19T21:34:19.321Z,94.37
2018-12-19T21:36:46.895Z,93.81
2018-12-19T21:39:14.493Z,92.71
2018-12-19T21:41:42.129Z,91.69
2018-12-19T21:44:09.696Z,92.50
2018-12-19T21:46:37.306Z,92.84
2018-12-19T21:49:05.024Z,93.12
2018-12-19T21:51:32.665Z,92.92
2018-12-19T21:54:00.238Z,92.87
2018-12-19T21:56:28.103Z,93.13
2018-12-19T21:58:55.685Z,93.52
2018-12-19T22:01:23.314Z,93.86
2018-12-19T22:03:51.086Z,93.96
2018-12-19T22:06:18.650Z,93.87
2018-12-19T22:08:46.210Z,94.21
2018-12-19T22:11:13.858Z,94.22
2018-12-19T22:13:41.481Z,94.38
2018-12-19T22:16:09.096Z,94.79
2018-12-19T22:18:47.307Z,95.16
2018-12-19T22:21:15.827Z,95.51
2018-12-19T22:23:43.403Z,95.26
2018-12-19T22:26:11.098Z,95.03
2018-12-19T22:28:38.701Z,95.13
2018-12-19T22:31:06.288Z,95.28
2018-12-19T22:33:34.058Z,95.32
2018-12-19T22:36:01.699Z,95.49
2018-12-19T22:38:29.322Z,95.37
2018-12-19T22:40:57.046Z,95.33
2018-12-19T22:43:25.469Z,95.58
2018-12-19T22:45:53.035Z,95.40
2018-12-19T22:48:20.945Z,95.30
2018-12-19T22:50:48.613Z,94.73
2018-12-19T22:53:16.144Z,94.28
2018-12-19T22:55:43.819Z,94.31
2018-12-19T22:58:11.520Z,94.25
2018-12-19T23:00:44.814Z,94.26
2018-12-19T23:03:12.378Z,93.94
2018-12-19T23:05:45.771Z,93.72
2018-12-19T23:08:13.448Z,93.50
2018-12-19T23:10:40.964Z,92.95
2018-12-19T23:13:08.692Z,92.93
2018-12-19T23:15:36.371Z,93.32
2018-12-19T23:18:09.731Z,93.58
2018-12-19T23:20:37.341Z,93.84
2018-12-19T23:23:04.966Z,94.16
2018-12-19T23:25:32.679Z,94.58
2018-12-19T23:28:00.237Z,94.87
2018-12-19T23:30:27.897Z,94.80
2018-12-19T23:32:55.505Z,94.71
2018-12-19T23:35:23.079Z,94.73
2018-12-19T23:37:50.649Z,95.00
2018-12-19T23:40:18.498Z,95.43
2018-12-19T23:42:46.131Z,95.96
2018-12-19T23:45:13.722Z,96.38
2018-12-19T23:47:41.387Z,96.85
2018-12-19T23:50:08.993Z,97.30
2018-12-19T23:52:36.542Z,97.62
2018-12-19T23:55:04.583Z,97.84
2018-12-19T23:57:32.301Z,97.97
2018-12-19T23:59:59.747Z,98.01
